Time;durP1;ratioP1;P1;durP2;ratioP2;P2;SDS_P1;SDS_P2;PMS_P1;PMS_P2;Temp;Humidity;BMP_temperature;BMP_pressure;BME280_temperature;BME280_humidity;BME280_pressure;Samples;Min_cycle;Max_cycle;Signal;HPM_P1;HPM_P2
2023/04/20 00:02:04;;;;;;;8.88;3.72;;;20.20;55.30;;;;;;5008297;28;20026;-71
2023/04/20 00:04:30;;;;;;;6.53;3.53;;;20.20;55.30;;;;;;5007964;28;20773;-71
2023/04/20 00:06:55;;;;;;;7.57;3.53;;;20.20;55.20;;;;;;4990733;28;20080;-71
2023/04/20 00:09:22;;;;;;;8.30;3.30;;;20.20;56.00;;;;;;4990860;28;20038;-71
2023/04/20 00:11:48;;;;;;;6.95;3.08;;;20.20;55.40;;;;;;5008197;28;20022;-71
2023/04/20 00:14:14;;;;;;;5.15;3.20;;;20.20;55.30;;;;;;5007644;28;20053;-72
2023/04/20 00:16:41;;;;;;;6.45;3.10;;;20.20;55.30;;;;;;4990824;28;20044;-72
2023/04/20 00:19:07;;;;;;;10.23;3.15;;;20.20;55.30;;;;;;4990842;28;20546;-71
2023/04/20 00:21:33;;;;;;;5.97;3.38;;;20.20;55.30;;;;;;5007909;28;20394;-72
2023/04/20 00:23:59;;;;;;;5.75;3.50;;;20.20;55.60;;;;;;4990145;28;20076;-70
2023/04/20 00:26:25;;;;;;;5.57;3.05;;;20.20;55.40;;;;;;5007998;28;20038;-72
2023/04/20 00:28:52;;;;;;;7.65;3.13;;;20.20;55.50;;;;;;4990496;28;20088;-72
2023/04/20 00:31:19;;;;;;;5.25;3.22;;;20.20;55.50;;;;;;4990391;28;20037;-72
2023/04/20 00:33:46;;;;;;;7.05;3.20;;;20.20;55.60;;;;;;5006833;28;20029;-72
2023/04/20 00:36:12;;;;;;;6.30;3.28;;;20.20;55.60;;;;;;5007715;28;20053;-71
2023/04/20 00:38:38;;;;;;;7.10;3.30;;;20.20;55.50;;;;;;5007951;28;20495;-71
2023/04/20 00:41:04;;;;;;;6.72;3.25;;;20.20;55.50;;;;;;4974190;28;20065;-71
2023/04/20 00:43:30;;;;;;;7.82;2.95;;;20.10;55.50;;;;;;5007738;28;20483;-71
2023/04/20 00:45:56;;;;;;;6.20;3.35;;;20.20;55.50;;;;;;4990016;28;20026;-71
2023/04/20 00:48:22;;;;;;;6.28;3.20;;;20.20;55.50;;;;;;4990524;28;20049;-71
2023/04/20 00:50:49;;;;;;;10.50;3.67;;;20.20;55.50;;;;;;4990429;28;20395;-72
2023/04/20 00:53:15;;;;;;;8.93;3.47;;;20.10;55.50;;;;;;5007719;28;20084;-71
2023/04/20 00:55:42;;;;;;;13.43;3.58;;;20.20;55.50;;;;;;4990274;28;20084;-71
2023/04/20 00:58:11;;;;;;;7.55;3.15;;;20.20;55.90;;;;;;5008429;28;20036;-71
2023/04/20 01:00:39;;;;;;;10.23;3.38;;;20.20;55.70;;;;;;5008062;28;20038;-71
2023/04/20 01:03:07;;;;;;;11.13;3.05;;;20.10;55.60;;;;;;5011770;28;20053;-71
2023/04/20 01:05:33;;;;;;;12.82;3.25;;;20.10;55.60;;;;;;5011104;28;20030;-71
2023/04/20 01:07:58;;;;;;;6.13;2.92;;;20.10;55.50;;;;;;5011755;28;20515;-71
2023/04/20 01:10:29;;;;;;;6.47;3.45;;;20.20;55.60;;;;;;4994189;28;20037;-71
2023/04/20 01:12:55;;;;;;;9.13;3.50;;;20.10;55.60;;;;;;5011947;28;20030;-72
2023/04/20 01:15:20;;;;;;;7.22;2.97;;;20.10;55.50;;;;;;4976689;28;20034;-73
2023/04/20 01:17:46;;;;;;;9.68;3.28;;;20.10;55.50;;;;;;4994169;28;20022;-72
2023/04/20 01:20:13;;;;;;;6.95;2.83;;;20.10;55.40;;;;;;4993947;28;20072;-72
2023/04/20 01:22:59;;;;;;;7.13;2.90;;;20.10;55.50;;;;;;4993609;28;20438;-72
2023/04/20 01:25:25;;;;;;;12.07;3.67;;;20.10;55.50;;;;;;4993258;28;20041;-72
2023/04/20 01:27:52;;;;;;;5.72;3.15;;;20.10;55.50;;;;;;5011569;28;20033;-71
2023/04/20 01:30:17;;;;;;;5.20;3.20;;;20.10;55.40;;;;;;4993118;28;20073;-72
2023/04/20 01:32:44;;;;;;;8.40;3.03;;;20.10;55.50;;;;;;5011334;28;20022;-72
2023/04/20 01:35:10;;;;;;;4.53;2.63;;;20.10;55.50;;;;;;5010809;28;20037;-71
2023/04/20 01:37:38;;;;;;;7.80;3.28;;;20.10;55.50;;;;;;4993520;28;20026;-72
2023/04/20 01:40:05;;;;;;;5.30;2.70;;;20.10;55.60;;;;;;4993623;28;20058;-71
2023/04/20 01:42:31;;;;;;;7.28;2.80;;;20.10;55.50;;;;;;4993429;28;20101;-71
2023/04/20 01:44:57;;;;;;;6.18;2.72;;;20.10;55.50;;;;;;4993141;28;20117;-71
2023/04/20 01:47:23;;;;;;;6.03;3.10;;;20.10;55.50;;;;;;4977143;28;20080;-72
2023/04/20 01:49:48;;;;;;;4.70;3.00;;;20.10;55.50;;;;;;4993413;28;20110;-72
2023/04/20 01:52:17;;;;;;;6.15;3.10;;;20.10;55.60;;;;;;4992785;28;20038;-71
2023/04/20 01:54:43;;;;;;;5.20;2.90;;;20.10;55.50;;;;;;4993310;28;20589;-72
2023/04/20 01:57:11;;;;;;;7.97;3.20;;;20.10;55.50;;;;;;5010858;28;20033;-72
2023/04/20 01:59:37;;;;;;;6.57;2.90;;;20.10;55.60;;;;;;4993126;28;20030;-71
2023/04/20 02:02:03;;;;;;;4.90;2.80;;;20.20;55.60;;;;;;5010058;28;20132;-72
2023/04/20 02:04:31;;;;;;;7.72;3.45;;;20.10;55.50;;;;;;5010512;28;20088;-72
2023/04/20 02:06:57;;;;;;;5.68;2.88;;;20.10;55.60;;;;;;4993220;28;20112;-72
2023/04/20 02:09:23;;;;;;;6.63;2.88;;;20.10;55.60;;;;;;4993058;28;20065;-71
2023/04/20 02:11:49;;;;;;;5.53;2.75;;;20.10;55.50;;;;;;4992953;28;20030;-71
2023/04/20 02:14:15;;;;;;;4.18;2.83;;;20.10;55.60;;;;;;4975634;28;20038;-71
2023/04/20 02:16:41;;;;;;;5.25;3.05;;;20.10;55.50;;;;;;5010609;28;20428;-71
2023/04/20 02:19:07;;;;;;;4.43;2.83;;;20.10;55.50;;;;;;4992675;28;20041;-71
2023/04/20 02:21:35;;;;;;;5.22;2.70;;;20.10;55.50;;;;;;4992367;28;20037;-72
2023/04/20 02:24:02;;;;;;;5.85;2.55;;;20.10;55.40;;;;;;5010270;28;20030;-72
2023/04/20 02:26:27;;;;;;;5.78;2.75;;;20.10;55.40;;;;;;4992944;28;20030;-71
2023/04/20 02:28:53;;;;;;;4.93;3.00;;;20.10;55.60;;;;;;5009968;28;20507;-72
2023/04/20 02:31:19;;;;;;;5.28;2.50;;;20.10;55.60;;;;;;4992531;28;20396;-72
2023/04/20 02:33:46;;;;;;;5.30;2.83;;;20.10;55.40;;;;;;4992038;28;20037;-72
2023/04/20 02:36:12;;;;;;;5.53;3.05;;;20.10;55.40;;;;;;4992357;28;20042;-72
2023/04/20 02:38:39;;;;;;;8.52;3.40;;;20.10;55.50;;;;;;5010221;28;20022;-72
2023/04/20 02:41:07;;;;;;;5.85;2.90;;;20.10;55.50;;;;;;4992462;28;20401;-71
2023/04/20 02:43:35;;;;;;;9.70;2.95;;;20.10;55.60;;;;;;4991807;28;20037;-71
2023/04/20 02:46:03;;;;;;;;;;;20.10;55.40;;;;;;4992680;28;20040;-72
2023/04/20 02:48:29;;;;;;;6.28;3.47;;;20.10;55.50;;;;;;5008762;28;19910;-72
2023/04/20 02:50:56;;;;;;;12.90;3.63;;;20.10;55.30;;;;;;4992050;28;20033;-72
2023/04/20 02:53:23;;;;;;;8.50;2.92;;;20.10;55.50;;;;;;4992212;28;20040;-72
2023/04/20 02:55:58;;;;;;;5.55;2.72;;;20.10;55.60;;;;;;4992109;28;20446;-71
2023/04/20 02:58:53;;;;;;;7.60;3.22;;;20.10;56.00;;;;;;4996182;28;20392;-72
2023/04/20 03:01:35;;;;;;;4.93;3.00;;;20.10;55.20;;;;;;4991995;28;20116;-71
2023/04/20 03:04:10;;;;;;;5.15;2.95;;;20.10;55.50;;;;;;4991818;28;20507;-71
2023/04/20 03:06:42;;;;;;;7.05;3.30;;;20.10;55.40;;;;;;4975918;28;20029;-71
2023/04/20 03:09:13;;;;;;;5.90;3.00;;;20.10;55.30;;;;;;4992359;28;20404;-71
2023/04/20 03:11:39;;;;;;;5.72;3.05;;;20.10;55.50;;;;;;5009451;28;20032;-71
2023/04/20 03:14:05;;;;;;;5.50;2.75;;;20.10;55.40;;;;;;4991229;28;20041;-71
2023/04/20 03:16:31;;;;;;;5.35;2.90;;;20.10;55.50;;;;;;4975677;28;20396;-71
2023/04/20 03:18:58;;;;;;;8.77;3.25;;;20.10;55.40;;;;;;4991982;28;20091;-71
2023/04/20 03:21:24;;;;;;;4.57;2.90;;;20.10;55.50;;;;;;4991473;28;20113;-71
2023/04/20 03:23:50;;;;;;;7.95;3.55;;;20.10;55.50;;;;;;4974855;28;20117;-71
2023/04/20 03:26:16;;;;;;;6.35;2.90;;;20.10;55.60;;;;;;4991786;28;20088;-71
2023/04/20 03:28:55;;;;;;;;;;;20.10;55.70;;;;;;4991946;28;20480;-71
2023/04/20 03:31:24;;;;;;;7.43;3.30;;;20.00;55.50;;;;;;4991403;28;19916;-71
2023/04/20 03:33:51;;;;;;;6.10;3.75;;;20.00;55.50;;;;;;4974912;28;20663;-71
2023/04/20 03:36:17;;;;;;;4.57;2.83;;;20.10;55.70;;;;;;4991650;28;20033;-71
2023/04/20 03:38:43;;;;;;;6.50;3.08;;;20.10;55.70;;;;;;5009085;28;20032;-71
2023/04/20 03:41:10;;;;;;;8.82;3.50;;;20.10;55.60;;;;;;4991167;28;20392;-71
2023/04/20 03:43:37;;;;;;;4.80;3.13;;;20.10;55.60;;;;;;4990922;28;20469;-71
2023/04/20 03:46:06;;;;;;;7.95;3.47;;;20.00;55.70;;;;;;4992180;28;20030;-71
2023/04/20 03:48:32;;;;;;;6.55;3.70;;;20.10;55.60;;;;;;5008847;28;20100;-71
2023/04/20 03:50:58;;;;;;;5.95;3.67;;;20.10;55.60;;;;;;4990886;28;20029;-71
2023/04/20 03:53:25;;;;;;;6.93;3.92;;;20.10;55.70;;;;;;4991012;28;20036;-71
2023/04/20 03:55:51;;;;;;;5.97;3.22;;;20.10;55.50;;;;;;4991326;28;20607;-71
2023/04/20 03:58:20;;;;;;;9.48;4.03;;;20.10;55.60;;;;;;5009013;28;20460;-71
2023/04/20 04:01:09;;;;;;;4.82;3.20;;;20.10;55.60;;;;;;5008728;28;20049;-71
2023/04/20 04:03:38;;;;;;;7.05;3.40;;;20.10;55.70;;;;;;4990652;28;20105;-71
2023/04/20 04:06:04;;;;;;;6.63;3.42;;;20.10;55.60;;;;;;4974976;28;20073;-71
2023/04/20 04:08:31;;;;;;;5.93;3.50;;;20.10;55.70;;;;;;4991283;28;20500;-71
2023/04/20 04:10:59;;;;;;;8.98;3.70;;;20.10;55.50;;;;;;4990992;28;20033;-72
2023/04/20 04:13:25;;;;;;;8.18;3.95;;;20.10;55.60;;;;;;4990706;28;20045;-72
2023/04/20 04:15:51;;;;;;;10.90;4.50;;;20.10;55.50;;;;;;4991110;28;20096;-71
2023/04/20 04:18:17;;;;;;;10.25;3.78;;;20.10;55.50;;;;;;4991359;28;20037;-71
2023/04/20 04:20:43;;;;;;;9.27;3.80;;;20.10;55.50;;;;;;4990596;28;20053;-71
2023/04/20 04:23:10;;;;;;;7.75;3.60;;;20.10;56.20;;;;;;4990788;28;20028;-72
2023/04/20 04:26:00;;;;;;;21.05;3.70;;;20.10;56.10;;;;;;4997426;28;20048;-72
2023/04/20 04:28:26;;;;;;;11.88;4.07;;;20.20;56.40;;;;;;4990863;28;20054;-71
2023/04/20 04:31:08;;;;;;;7.32;3.85;;;20.20;55.90;;;;;;4974877;28;20112;-72
2023/04/20 04:33:37;;;;;;;;;;;20.10;55.70;;;;;;4990787;28;20092;-72
2023/04/20 04:36:04;;;;;;;8.00;3.95;;;20.10;55.80;;;;;;5007340;28;19917;-72
2023/04/20 04:38:32;;;;;;;10.57;3.95;;;20.10;55.80;;;;;;4994687;28;20084;-72
2023/04/20 04:40:59;;;;;;;12.68;4.63;;;20.10;56.50;;;;;;4994432;28;20029;-72
2023/04/20 04:43:26;;;;;;;8.05;3.83;;;20.10;55.80;;;;;;4993997;28;20040;-72
2023/04/20 04:46:13;;;;;;;13.82;4.43;;;20.10;55.90;;;;;;5011533;28;20128;-72
2023/04/20 04:48:41;;;;;;;9.93;4.10;;;20.10;55.80;;;;;;4994459;28;20498;-72
2023/04/20 04:51:08;;;;;;;10.40;4.38;;;20.10;55.90;;;;;;4994501;28;20596;-72
2023/04/20 04:53:34;;;;;;;8.13;3.97;;;20.10;55.90;;;;;;5011975;28;20026;-71
2023/04/20 04:56:00;;;;;;;12.00;4.22;;;20.10;55.90;;;;;;5011627;28;20030;-71
2023/04/20 04:58:26;;;;;;;8.45;3.97;;;20.10;55.90;;;;;;5011222;28;20026;-71
2023/04/20 05:00:51;;;;;;;8.98;4.25;;;20.10;55.80;;;;;;5011875;28;20033;-71
2023/04/20 05:03:17;;;;;;;8.57;4.28;;;20.10;55.80;;;;;;4993839;28;20034;-71
2023/04/20 05:05:43;;;;;;;8.93;3.92;;;20.10;55.70;;;;;;5011724;28;20037;-71
2023/04/20 05:08:10;;;;;;;12.23;4.78;;;20.10;55.70;;;;;;5010973;28;20029;-71
2023/04/20 05:10:35;;;;;;;12.32;4.63;;;20.20;55.60;;;;;;5011552;28;20435;-70
2023/04/20 05:13:01;;;;;;;11.00;4.40;;;20.20;55.90;;;;;;5011633;28;20026;-71
2023/04/20 05:15:27;;;;;;;10.38;4.05;;;20.20;55.60;;;;;;5011132;28;20034;-71
2023/04/20 05:17:53;;;;;;;10.70;4.60;;;20.20;56.20;;;;;;4993790;28;20029;-71
2023/04/20 05:20:20;;;;;;;9.32;4.00;;;20.20;55.70;;;;;;4993451;28;20030;-71
2023/04/20 05:22:46;;;;;;;7.20;3.80;;;20.20;55.80;;;;;;5011530;28;20048;-71
2023/04/20 05:25:14;;;;;;;7.97;4.35;;;20.20;55.90;;;;;;5010934;28;20057;-70
2023/04/20 05:27:40;;;;;;;8.48;3.95;;;20.20;55.70;;;;;;5011556;28;20054;-71
2023/04/20 05:30:07;;;;;;;8.15;4.15;;;20.20;55.80;;;;;;5010854;28;20064;-71
2023/04/20 05:32:32;;;;;;;12.50;4.03;;;20.20;56.10;;;;;;4993654;28;20429;-71
2023/04/20 05:34:59;;;;;;;8.65;4.22;;;20.20;56.20;;;;;;5010790;28;20076;-70
2023/04/20 05:37:26;;;;;;;16.35;4.13;;;20.20;56.40;;;;;;4993563;28;20029;-71
2023/04/20 05:39:52;;;;;;;11.45;4.18;;;20.30;57.00;;;;;;5010464;28;20018;-71
2023/04/20 05:42:17;;;;;;;11.85;4.13;;;20.20;57.60;;;;;;5011328;28;20379;-71
2023/04/20 05:44:43;;;;;;;15.30;4.45;;;20.30;57.20;;;;;;5010846;28;20057;-71
2023/04/20 05:47:10;;;;;;;34.03;4.95;;;20.30;57.40;;;;;;5011384;28;20026;-71
2023/04/20 05:49:35;;;;;;;18.88;4.78;;;20.30;57.90;;;;;;5009808;28;20034;-70
2023/04/20 05:52:02;;;;;;;16.50;4.70;;;20.30;58.30;;;;;;5010550;28;20118;-70
2023/04/20 05:54:28;;;;;;;14.60;4.43;;;20.30;58.10;;;;;;4992325;28;20431;-71
2023/04/20 05:56:57;;;;;;;17.92;4.95;;;20.30;58.10;;;;;;5010081;28;20069;-71
2023/04/20 05:59:25;;;;;;;28.05;5.38;;;20.30;57.70;;;;;;5010708;28;20033;-71
2023/04/20 06:01:50;;;;;;;14.60;4.32;;;20.30;58.00;;;;;;5010962;28;20030;-71
2023/04/20 06:04:16;;;;;;;18.67;5.03;;;20.30;58.00;;;;;;4994489;28;20163;-71
2023/04/20 06:06:42;;;;;;;17.45;9.30;;;20.30;57.70;;;;;;5011540;28;20036;-71
2023/04/20 06:09:08;;;;;;;15.88;10.65;;;20.00;50.80;;;;;;5012404;28;20053;-71
2023/04/20 06:11:37;;;;;;;19.90;11.70;;;19.60;48.80;;;;;;5012752;28;20488;-71
2023/04/20 06:14:03;;;;;;;17.90;11.25;;;19.30;47.60;;;;;;5012280;28;20148;-72
2023/04/20 06:16:29;;;;;;;16.88;10.63;;;19.00;49.20;;;;;;5012332;28;20500;-73
2023/04/20 06:18:54;;;;;;;18.85;11.63;;;19.10;49.40;;;;;;4995047;28;20534;-71
2023/04/20 06:21:20;;;;;;;17.20;10.45;;;19.30;50.50;;;;;;4994718;28;20045;-72
2023/04/20 06:23:46;;;;;;;18.85;9.90;;;19.30;50.30;;;;;;5011851;28;20021;-72
2023/04/20 06:26:12;;;;;;;14.52;8.88;;;19.50;50.50;;;;;;5012599;28;20395;-73
2023/04/20 06:28:38;;;;;;;16.13;8.88;;;19.60;50.70;;;;;;5012632;28;20030;-71
2023/04/20 06:31:05;;;;;;;13.38;8.30;;;19.60;50.90;;;;;;5012209;28;20030;-72
2023/04/20 06:33:31;;;;;;;16.42;7.85;;;19.70;51.20;;;;;;5011983;28;20026;-73
2023/04/20 06:35:57;;;;;;;17.40;8.07;;;19.70;51.40;;;;;;5012089;28;20539;-73
2023/04/20 06:38:24;;;;;;;17.55;8.30;;;19.70;51.60;;;;;;5012263;28;20030;-71
2023/04/20 06:40:50;;;;;;;14.30;7.38;;;19.80;51.70;;;;;;5012326;28;20022;-71
2023/04/20 06:43:16;;;;;;;14.02;7.07;;;19.80;51.80;;;;;;4994846;28;20034;-72
2023/04/20 06:45:42;;;;;;;11.10;6.85;;;19.90;52.10;;;;;;5011919;28;20036;-72
2023/04/20 06:48:08;;;;;;;13.48;6.90;;;19.90;52.10;;;;;;5012118;28;20518;-72
2023/04/20 06:50:33;;;;;;;11.10;6.85;;;19.90;52.20;;;;;;5011897;28;20415;-72
2023/04/20 06:53:02;;;;;;;11.18;6.70;;;19.90;52.30;;;;;;4994185;28;20030;-72
2023/04/20 06:55:28;;;;;;;11.82;6.97;;;19.90;52.40;;;;;;5011650;28;20510;-72
2023/04/20 06:57:54;;;;;;;12.98;6.35;;;19.90;52.50;;;;;;5011994;28;20030;-72
2023/04/20 07:00:19;;;;;;;13.15;6.13;;;19.90;52.60;;;;;;4977756;28;20423;-72
2023/04/20 07:02:48;;;;;;;9.75;6.30;;;19.90;52.70;;;;;;5011687;28;20034;-72
2023/04/20 07:05:15;;;;;;;9.80;6.03;;;19.90;52.80;;;;;;5011442;28;20026;-72
2023/04/20 07:07:41;;;;;;;10.13;6.10;;;19.90;52.80;;;;;;5011754;28;20022;-72
2023/04/20 07:10:09;;;;;;;10.77;6.22;;;19.90;52.90;;;;;;4994470;28;20072;-72
2023/04/20 07:12:36;;;;;;;13.07;6.43;;;19.90;53.00;;;;;;5011529;28;20476;-73
2023/04/20 07:15:03;;;;;;;8.43;5.45;;;19.90;53.00;;;;;;5011087;28;20036;-72
2023/04/20 07:17:30;;;;;;;9.75;6.18;;;20.00;53.10;;;;;;4993894;28;20068;-72
2023/04/20 07:19:57;;;;;;;9.98;5.93;;;20.00;53.10;;;;;;5011638;28;20036;-72
2023/04/20 07:22:22;;;;;;;11.00;5.38;;;20.00;53.20;;;;;;5011251;28;20480;-72
2023/04/20 07:24:48;;;;;;;10.38;5.45;;;20.00;53.10;;;;;;5011313;28;20080;-72
2023/04/20 07:27:14;;;;;;;9.07;5.68;;;20.00;53.10;;;;;;5011164;28;20087;-72
2023/04/20 07:29:40;;;;;;;8.05;4.97;;;19.90;53.20;;;;;;5011607;28;20503;-73
2023/04/20 07:32:06;;;;;;;10.65;5.90;;;20.00;53.30;;;;;;5011229;28;20459;-73
2023/04/20 07:34:31;;;;;;;8.32;5.03;;;20.00;53.30;;;;;;4993223;28;20022;-72
2023/04/20 07:36:57;;;;;;;9.18;5.43;;;20.00;53.40;;;;;;5010929;28;20092;-73
2023/04/20 07:39:24;;;;;;;9.02;5.25;;;20.00;53.40;;;;;;5011759;28;20018;-73
2023/04/20 07:41:50;;;;;;;9.60;5.15;;;20.00;53.40;;;;;;5010962;28;20464;-72
2023/04/20 07:44:15;;;;;;;8.98;5.68;;;20.00;53.40;;;;;;5010902;28;20049;-73
2023/04/20 07:46:41;;;;;;;8.35;5.20;;;20.00;53.60;;;;;;4993734;28;20084;-73
2023/04/20 07:49:07;;;;;;;10.43;5.75;;;20.00;53.40;;;;;;5011549;28;20088;-73
2023/04/20 07:51:33;;;;;;;9.00;5.65;;;20.00;53.40;;;;;;5011199;28;20483;-72
2023/04/20 07:53:59;;;;;;;8.98;5.57;;;20.00;53.60;;;;;;5010543;28;20123;-73
2023/04/20 07:56:27;;;;;;;9.88;5.50;;;20.00;53.50;;;;;;5010947;28;20060;-73
2023/04/20 07:58:53;;;;;;;8.90;4.97;;;20.00;53.70;;;;;;5011090;28;20029;-73
2023/04/20 08:01:23;;;;;;;8.38;5.10;;;20.00;53.70;;;;;;5010941;28;20423;-72
2023/04/20 08:03:49;;;;;;;8.75;4.80;;;20.00;53.70;;;;;;4993106;28;20037;-73
2023/04/20 08:06:15;;;;;;;9.05;5.55;;;20.00;53.70;;;;;;5010963;28;20395;-72
2023/04/20 08:08:40;;;;;;;8.40;5.32;;;20.00;53.70;;;;;;5010971;28;20029;-73
2023/04/20 08:11:07;;;;;;;8.48;5.20;;;20.00;53.70;;;;;;5011047;28;20030;-72
2023/04/20 08:13:33;;;;;;;9.40;5.20;;;20.00;53.70;;;;;;4997182;28;20164;-72
2023/04/20 08:15:58;;;;;;;7.13;4.80;;;20.00;53.80;;;;;;5014810;28;20030;-72
2023/04/20 08:18:24;;;;;;;9.00;5.53;;;20.00;53.60;;;;;;5014687;28;20234;-72
2023/04/20 08:20:50;;;;;;;8.48;5.65;;;20.00;53.70;;;;;;5015149;28;20030;-72
2023/04/20 08:23:16;;;;;;;7.32;5.15;;;20.00;53.70;;;;;;5014632;28;20030;-72
2023/04/20 08:25:42;;;;;;;7.75;4.72;;;20.00;53.70;;;;;;4996972;28;20384;-72
2023/04/20 08:28:07;;;;;;;7.72;5.25;;;20.10;53.80;;;;;;5014755;28;20109;-72
2023/04/20 08:30:33;;;;;;;8.68;5.10;;;20.00;53.60;;;;;;5014659;28;20037;-73
2023/04/20 08:32:59;;;;;;;6.78;5.10;;;20.00;53.70;;;;;;5014638;28;20026;-73
2023/04/20 08:35:25;;;;;;;9.10;5.40;;;20.00;53.70;;;;;;5014074;28;20030;-73
2023/04/20 08:37:51;;;;;;;7.72;5.05;;;20.00;53.80;;;;;;5014456;28;20021;-72
2023/04/20 08:40:18;;;;;;;9.23;5.13;;;20.00;53.90;;;;;;4996895;28;20080;-72
2023/04/20 08:42:45;;;;;;;8.57;5.13;;;20.00;53.90;;;;;;4996764;28;20030;-72
2023/04/20 08:45:11;;;;;;;7.28;4.80;;;20.00;53.90;;;;;;5014109;28;20452;-72
2023/04/20 08:47:38;;;;;;;8.98;4.90;;;20.00;53.90;;;;;;4996577;28;20488;-72
2023/04/20 08:50:04;;;;;;;7.70;4.68;;;20.00;53.90;;;;;;5014402;28;20443;-73
2023/04/20 08:52:32;;;;;;;7.95;4.80;;;20.00;53.90;;;;;;5014790;28;20029;-72
2023/04/20 08:54:57;;;;;;;10.15;5.40;;;20.00;54.10;;;;;;5013996;28;20030;-73
2023/04/20 08:57:24;;;;;;;8.60;5.18;;;20.00;53.90;;;;;;4996493;28;20048;-72
2023/04/20 08:59:50;;;;;;;8.93;4.95;;;20.00;53.90;;;;;;4980249;28;20026;-72
2023/04/20 09:02:16;;;;;;;7.90;5.00;;;20.00;53.90;;;;;;5013876;28;20494;-72
2023/04/20 09:04:42;;;;;;;6.93;4.80;;;20.00;54.00;;;;;;5013491;28;20034;-72
2023/04/20 09:07:19;;;;;;;8.30;4.75;;;20.00;53.90;;;;;;4996454;28;20563;-72
2023/04/20 09:09:56;;;;;;;8.82;5.00;;;20.00;54.00;;;;;;5013882;28;20034;-72
2023/04/20 09:12:23;;;;;;;6.90;4.60;;;20.00;54.00;;;;;;5013866;28;20029;-72
2023/04/20 09:14:50;;;;;;;8.35;5.13;;;20.00;54.10;;;;;;5013451;28;20502;-72
2023/04/20 09:17:16;;;;;;;7.60;4.75;;;20.00;54.10;;;;;;5013625;28;20685;-72
2023/04/20 09:19:44;;;;;;;8.40;4.75;;;20.00;54.20;;;;;;4995942;28;20092;-72
2023/04/20 09:22:11;;;;;;;8.15;4.75;;;20.00;54.10;;;;;;5013412;28;20338;-72
2023/04/20 09:24:38;;;;;;;8.10;4.82;;;20.00;54.10;;;;;;5013277;28;20110;-73
2023/04/20 09:27:17;;;;;;;7.25;4.80;;;20.00;54.10;;;;;;5013610;28;20084;-72
2023/04/20 09:29:44;;;;;;;7.57;4.65;;;20.00;54.00;;;;;;5013477;28;20541;-72
2023/04/20 09:32:23;;;;;;;7.78;4.72;;;20.00;54.00;;;;;;4995877;28;20607;-72
2023/04/20 09:34:49;;;;;;;9.07;5.38;;;20.10;54.10;;;;;;4995655;28;20117;-73
2023/04/20 09:37:15;;;;;;;8.27;5.10;;;20.00;54.20;;;;;;5013476;28;20034;-72
2023/04/20 09:39:43;;;;;;;7.07;4.55;;;20.00;54.10;;;;;;5013245;28;20391;-73
2023/04/20 09:42:12;;;;;;;6.63;4.75;;;20.00;54.20;;;;;;5013310;28;20032;-73
2023/04/20 09:44:39;;;;;;;7.75;5.10;;;20.00;54.20;;;;;;5012620;28;20577;-73
2023/04/20 09:47:06;;;;;;;8.93;5.00;;;20.00;54.10;;;;;;5013043;28;20045;-73
2023/04/20 09:49:32;;;;;;;7.50;4.68;;;20.00;54.10;;;;;;5013198;28;20057;-73
2023/04/20 09:52:02;;;;;;;8.70;5.10;;;20.10;54.10;;;;;;4995617;28;20444;-73
2023/04/20 09:54:28;;;;;;;7.68;4.88;;;20.10;54.10;;;;;;4994975;28;20034;-73
2023/04/20 09:56:54;;;;;;;7.07;4.55;;;20.00;54.00;;;;;;5013002;28;20495;-73
2023/04/20 09:59:21;;;;;;;7.78;4.90;;;20.00;54.10;;;;;;5013003;28;20026;-73
2023/04/20 10:01:47;;;;;;;7.65;4.78;;;20.00;54.00;;;;;;5012827;28;20022;-72
2023/04/20 10:04:13;;;;;;;8.18;4.55;;;20.10;54.10;;;;;;5012814;28;20075;-73
2023/04/20 10:06:50;;;;;;;7.35;4.90;;;20.10;54.10;;;;;;4995278;28;20026;-73
2023/04/20 10:09:22;;;;;;;7.05;4.55;;;20.10;54.10;;;;;;5012736;28;20033;-73
2023/04/20 10:11:47;;;;;;;8.80;4.75;;;20.10;54.10;;;;;;5012696;28;20040;-72
2023/04/20 10:14:16;;;;;;;7.28;4.38;;;20.10;54.10;;;;;;5012274;28;20488;-73
2023/04/20 10:16:43;;;;;;;7.22;4.47;;;20.10;54.20;;;;;;4995160;28;20392;-73
2023/04/20 10:19:09;;;;;;;6.43;4.70;;;20.10;54.30;;;;;;4978959;28;20025;-73
2023/04/20 10:21:46;;;;;;;7.38;4.95;;;20.10;54.20;;;;;;4994883;28;20045;-73
2023/04/20 10:24:12;;;;;;;6.78;4.63;;;20.10;54.20;;;;;;4994784;28;20022;-73
2023/04/20 10:26:41;;;;;;;6.28;4.53;;;20.10;54.20;;;;;;4995037;28;20026;-73
2023/04/20 10:29:07;;;;;;;9.50;4.70;;;20.10;54.20;;;;;;4994818;28;20026;-73
2023/04/20 10:31:40;;;;;;;10.63;5.15;;;20.10;54.20;;;;;;5012323;28;20049;-73
2023/04/20 10:34:07;;;;;;;5.93;4.10;;;20.10;54.20;;;;;;4993929;28;20041;-73
2023/04/20 10:36:37;;;;;;;7.20;4.50;;;20.10;54.10;;;;;;5012090;28;20076;-73
2023/04/20 10:39:17;;;;;;;7.57;4.70;;;20.10;54.30;;;;;;4995077;28;20456;-73
2023/04/20 10:41:57;;;;;;;8.50;4.97;;;20.10;54.20;;;;;;4994773;28;20069;-73
2023/04/20 10:44:23;;;;;;;8.60;5.40;;;20.10;54.30;;;;;;5011905;28;20025;-73
2023/04/20 10:46:50;;;;;;;7.93;4.30;;;20.10;54.20;;;;;;4994559;28;20270;-73
2023/04/20 10:49:17;;;;;;;8.07;4.63;;;20.10;54.40;;;;;;5012092;28;20113;-72
2023/04/20 10:51:50;;;;;;;8.57;4.88;;;20.10;54.30;;;;;;5012020;28;20026;-72
2023/04/20 10:54:16;;;;;;;7.53;4.75;;;20.10;54.40;;;;;;5011781;28;20041;-72
2023/04/20 10:56:44;;;;;;;7.25;4.28;;;20.10;54.30;;;;;;5011928;28;20396;-73
2023/04/20 10:59:30;;;;;;;7.05;4.55;;;20.10;54.30;;;;;;4994246;28;20048;-72
2023/04/20 11:01:58;;;;;;;7.55;4.07;;;20.10;54.30;;;;;;4977448;28;20667;-72
2023/04/20 11:04:31;;;;;;;8.40;4.15;;;20.20;54.30;;;;;;5011789;28;20068;-72
2023/04/20 11:07:05;;;;;;;7.43;4.68;;;20.20;54.30;;;;;;5011734;28;20034;-72
2023/04/20 11:09:33;;;;;;;8.45;4.75;;;20.20;54.30;;;;;;5011912;28;20033;-73
2023/04/20 11:12:04;;;;;;;7.13;4.15;;;20.10;54.40;;;;;;4994283;28;20037;-73
2023/04/20 11:14:34;;;;;;;6.35;4.53;;;20.10;54.40;;;;;;5011164;28;20460;-73
2023/04/20 11:17:01;;;;;;;6.82;4.38;;;20.10;54.30;;;;;;5011639;28;20042;-73
2023/04/20 11:19:32;;;;;;;7.30;4.32;;;20.10;54.40;;;;;;4993955;28;20044;-73
2023/04/20 11:21:59;;;;;;;8.88;5.35;;;20.10;54.50;;;;;;4977985;28;20479;-72
2023/04/20 11:24:29;;;;;;;9.20;4.97;;;20.10;54.50;;;;;;4993616;28;20041;-73
2023/04/20 11:26:56;;;;;;;6.47;4.47;;;20.10;54.50;;;;;;5011464;28;20037;-73
2023/04/20 11:29:40;;;;;;;8.75;4.65;;;20.10;54.60;;;;;;5011330;28;20033;-72
2023/04/20 11:32:10;;;;;;;5.57;3.95;;;20.10;54.70;;;;;;5011611;28;20030;-73
2023/04/20 11:34:38;;;;;;;6.57;4.13;;;20.10;54.50;;;;;;4993641;28;20045;-73
2023/04/20 11:37:09;;;;;;;6.68;4.35;;;20.10;54.60;;;;;;4993740;28;20037;-72
2023/04/20 11:39:36;;;;;;;7.97;4.80;;;20.10;54.60;;;;;;4993721;28;20112;-73
2023/04/20 11:42:03;;;;;;;5.53;3.70;;;20.10;54.50;;;;;;5011162;28;20037;-72
2023/04/20 11:44:29;;;;;;;9.73;5.15;;;20.10;54.60;;;;;;5010950;28;20053;-72
2023/04/20 11:46:58;;;;;;;7.90;4.53;;;20.10;54.40;;;;;;5010201;28;20056;-73
2023/04/20 11:49:26;;;;;;;7.38;4.38;;;20.10;54.60;;;;;;5011136;28;20025;-72
2023/04/20 11:51:52;;;;;;;6.82;4.38;;;20.10;54.50;;;;;;5010904;28;20340;-72
2023/04/20 11:54:18;;;;;;;7.72;4.00;;;20.10;54.50;;;;;;4993218;28;20030;-72
2023/04/20 11:56:44;;;;;;;7.20;4.40;;;20.10;54.60;;;;;;5011109;28;20037;-72
2023/04/20 11:59:12;;;;;;;8.13;4.53;;;20.10;54.50;;;;;;5011078;28;20350;-72
2023/04/20 12:01:38;;;;;;;8.38;4.38;;;20.10;54.50;;;;;;5010911;28;20033;-73
2023/04/20 12:04:04;;;;;;;6.47;4.10;;;20.10;54.60;;;;;;4977043;28;20048;-73
2023/04/20 12:06:30;;;;;;;6.60;4.18;;;20.10;54.60;;;;;;5010873;28;20484;-72
2023/04/20 12:08:57;;;;;;;6.53;4.05;;;20.10;54.60;;;;;;5011267;28;20038;-73
2023/04/20 12:11:23;;;;;;;7.60;4.57;;;20.10;54.60;;;;;;4993519;28;20033;-73
2023/04/20 12:13:49;;;;;;;8.95;4.07;;;20.10;54.60;;;;;;5010606;28;20022;-73
2023/04/20 12:16:15;;;;;;;7.15;4.47;;;20.10;54.60;;;;;;4993128;28;20430;-72
2023/04/20 12:18:41;;;;;;;6.68;4.15;;;20.10;54.70;;;;;;5010993;28;20026;-73
2023/04/20 12:21:07;;;;;;;10.90;4.88;;;20.10;54.80;;;;;;4993211;28;20029;-73
2023/04/20 12:23:35;;;;;;;8.48;4.43;;;20.10;54.80;;;;;;4993163;28;20484;-73
2023/04/20 12:26:05;;;;;;;7.70;4.40;;;20.10;54.70;;;;;;5010671;28;20037;-73
2023/04/20 12:28:31;;;;;;;;;;;20.10;54.70;;;;;;5011665;28;20032;-73
2023/04/20 12:30:57;;;;;;;6.18;3.80;;;20.10;54.70;;;;;;4993237;28;20434;-73
2023/04/20 12:33:23;;;;;;;8.02;4.72;;;20.10;54.80;;;;;;4993035;28;20056;-73
2023/04/20 12:35:49;;;;;;;8.85;4.70;;;20.10;54.80;;;;;;4993102;28;20599;-73
2023/04/20 12:38:15;;;;;;;6.50;4.32;;;20.10;55.40;;;;;;4993300;28;20045;-73
2023/04/20 12:40:40;;;;;;;9.27;4.45;;;20.10;54.70;;;;;;5010521;28;20026;-73
2023/04/20 12:43:06;;;;;;;6.75;4.13;;;20.20;54.90;;;;;;5010789;28;20022;-73
2023/04/20 12:45:33;;;;;;;7.88;4.80;;;20.20;54.80;;;;;;4992823;28;20045;-73
2023/04/20 12:47:59;;;;;;;6.93;4.68;;;20.20;54.80;;;;;;5010523;28;20026;-73